Time;durP1;ratioP1;P1;durP2;ratioP2;P2;SDS_P1;SDS_P2;PMS_P1;PMS_P2;Temp;Humidity;BMP_temperature;BMP_pressure;BME280_temperature;BME280_humidity;BME280_pressure;Samples;Min_cycle;Max_cycle;Signal;HPM_P1;HPM_P2
2022/09/18 00:01:07;;;;;;;0.30;0.30;;;;;;;;;;7382918;19;20128;-73
2022/09/18 00:03:32;;;;;;;0.30;0.30;;;;;;;;;;7382388;19;20161;-73
2022/09/18 00:06:04;;;;;;;0.30;0.30;;;;;;;;;;7384807;19;20569;-73
2022/09/18 00:08:29;;;;;;;0.30;0.30;;;;;;;;;;7384471;19;20125;-73
2022/09/18 00:10:55;;;;;;;0.30;0.30;;;;;;;;;;7384052;19;20125;-73
2022/09/18 00:13:20;;;;;;;0.30;0.30;;;;;;;;;;7380221;19;20619;-73
2022/09/18 00:15:53;;;;;;;0.30;0.30;;;;;;;;;;7383704;19;20130;-73
2022/09/18 00:18:18;;;;;;;1.23;0.50;;;;;;;;;;7382711;19;20196;-74
2022/09/18 00:20:43;;;;;;;0.30;0.30;;;;;;;;;;7381469;19;20125;-73
2022/09/18 00:23:09;;;;;;;0.20;0.20;;;;;;;;;;7381653;19;20129;-73
2022/09/18 00:25:34;;;;;;;1.60;0.83;;;;;;;;;;7382091;19;20109;-73
2022/09/18 00:27:59;;;;;;;0.30;0.30;;;;;;;;;;7383161;19;20652;-73
2022/09/18 00:30:25;;;;;;;0.30;0.30;;;;;;;;;;7379863;19;20119;-73
2022/09/18 00:32:50;;;;;;;0.90;0.87;;;;;;;;;;7382495;19;20481;-72
2022/09/18 00:35:15;;;;;;;0.30;0.30;;;;;;;;;;7381377;19;20509;-74
2022/09/18 00:37:41;;;;;;;0.57;0.57;;;;;;;;;;7382528;19;20148;-73
2022/09/18 00:40:06;;;;;;;0.67;0.67;;;;;;;;;;7380184;19;20137;-73
2022/09/18 00:42:31;;;;;;;0.30;0.30;;;;;;;;;;7382224;19;20475;-73
2022/09/18 00:44:57;;;;;;;0.20;0.20;;;;;;;;;;7382037;19;20138;-73
2022/09/18 00:47:34;;;;;;;0.30;0.30;;;;;;;;;;7382542;19;20192;-73
2022/09/18 00:49:59;;;;;;;0.30;0.30;;;;;;;;;;7379572;19;20545;-73
2022/09/18 00:52:38;;;;;;;0.43;0.43;;;;;;;;;;7384406;19;20109;-73
2022/09/18 00:55:07;;;;;;;0.30;0.30;;;;;;;;;;7380134;19;20153;-73
2022/09/18 00:57:34;;;;;;;0.30;0.30;;;;;;;;;;7382156;19;20116;-73
2022/09/18 01:00:04;;;;;;;0.23;0.23;;;;;;;;;;7381299;19;20482;-73
2022/09/18 01:02:29;;;;;;;0.30;0.30;;;;;;;;;;7379762;19;20478;-73
2022/09/18 01:04:55;;;;;;;0.30;0.30;;;;;;;;;;7379189;19;20124;-73
2022/09/18 01:07:54;;;;;;;0.30;0.30;;;;;;;;;;7379612;19;20127;-73
2022/09/18 01:10:47;;;;;;;0.30;0.30;;;;;;;;;;7380108;19;20117;-73
2022/09/18 01:13:25;;;;;;;0.37;0.37;;;;;;;;;;7380570;19;20172;-73
2022/09/18 01:19:50;;;;;;;0.30;0.30;;;;;;;;;;7380664;19;20118;-73
2022/09/18 01:22:22;;;;;;;0.30;0.30;;;;;;;;;;7380979;19;20487;-73
2022/09/18 01:25:19;;;;;;;0.30;0.30;;;;;;;;;;7375756;19;20149;-73
2022/09/18 01:28:11;;;;;;;0.20;0.20;;;;;;;;;;7378428;19;20488;-74
2022/09/18 01:30:39;;;;;;;0.40;0.40;;;;;;;;;;7375195;19;20212;-73
2022/09/18 01:33:14;;;;;;;0.30;0.30;;;;;;;;;;7378197;19;20121;-73
2022/09/18 01:35:48;;;;;;;0.20;0.20;;;;;;;;;;7383098;19;20139;-74
2022/09/18 01:38:33;;;;;;;0.30;0.30;;;;;;;;;;7385890;19;20129;-73
2022/09/18 01:41:08;;;;;;;0.30;0.30;;;;;;;;;;7385797;19;20113;-74
2022/09/18 01:43:34;;;;;;;0.30;0.30;;;;;;;;;;7387344;19;20152;-73
2022/09/18 01:46:03;;;;;;;0.30;0.30;;;;;;;;;;7387976;19;20117;-74
2022/09/18 01:57:56;;;;;;;0.37;0.37;;;;;;;;;;7388861;19;20191;-91
2022/09/18 02:00:23;;;;;;;0.30;0.30;;;;;;;;;;7397340;19;20176;-88
2022/09/18 02:03:22;;;;;;;0.30;0.30;;;;;;;;;;7397694;19;20102;-91
2022/09/18 02:05:55;;;;;;;2.23;0.50;;;;;;;;;;7394869;19;20508;-88
2022/09/18 02:08:28;;;;;;;0.30;0.30;;;;;;;;;;7399925;19;20230;-89
2022/09/18 02:11:06;;;;;;;0.30;0.30;;;;;;;;;;7397728;19;20678;-89
2022/09/18 02:13:36;;;;;;;0.30;0.30;;;;;;;;;;7397360;19;20120;-90
2022/09/18 02:16:05;;;;;;;0.30;0.30;;;;;;;;;;7396876;19;20120;-91
2022/09/18 02:18:34;;;;;;;0.30;0.30;;;;;;;;;;7398877;19;20133;-88
2022/09/18 02:21:00;;;;;;;0.50;0.50;;;;;;;;;;7388940;19;20148;-89
2022/09/18 02:23:27;;;;;;;0.30;0.30;;;;;;;;;;7390552;19;20111;-91
2022/09/18 02:25:55;;;;;;;0.30;0.30;;;;;;;;;;7392196;19;20152;-89
2022/09/18 02:28:22;;;;;;;0.30;0.30;;;;;;;;;;7392519;19;20113;-89
2022/09/18 02:30:47;;;;;;;0.37;0.37;;;;;;;;;;7394702;19;20669;-89
2022/09/18 02:33:22;;;;;;;0.30;0.30;;;;;;;;;;7391596;19;20243;-89
2022/09/18 02:35:59;;;;;;;0.20;0.20;;;;;;;;;;7390219;19;20180;-89
2022/09/18 02:38:48;;;;;;;0.43;0.43;;;;;;;;;;7388019;19;20125;-90
2022/09/18 02:41:28;;;;;;;0.30;0.30;;;;;;;;;;7389396;19;20161;-90
2022/09/18 02:44:13;;;;;;;0.30;0.30;;;;;;;;;;7390074;19;20125;-90
2022/09/18 02:47:00;;;;;;;0.30;0.30;;;;;;;;;;7391317;19;20113;-89
2022/09/18 02:49:49;;;;;;;0.30;0.30;;;;;;;;;;7389689;19;20237;-89
2022/09/18 02:52:27;;;;;;;0.50;0.50;;;;;;;;;;7387065;19;20255;-91
2022/09/18 02:55:09;;;;;;;0.30;0.30;;;;;;;;;;7388727;19;20469;-90
2022/09/18 02:57:57;;;;;;;0.30;0.30;;;;;;;;;;7393422;19;20121;-89
2022/09/18 03:00:24;;;;;;;0.30;0.30;;;;;;;;;;7390997;19;20148;-89
2022/09/18 03:02:50;;;;;;;0.30;0.30;;;;;;;;;;7389846;19;20121;-91
2022/09/18 03:05:15;;;;;;;0.30;0.30;;;;;;;;;;7392108;19;20166;-91
2022/09/18 03:07:41;;;;;;;0.73;0.73;;;;;;;;;;7391895;19;20133;-89
2022/09/18 03:10:07;;;;;;;0.30;0.30;;;;;;;;;;7388127;19;20505;-91
2022/09/18 03:12:35;;;;;;;0.40;0.40;;;;;;;;;;7391557;19;20607;-91
2022/09/18 03:15:40;;;;;;;0.30;0.30;;;;;;;;;;7389564;19;20144;-90
2022/09/18 03:18:29;;;;;;;0.27;0.27;;;;;;;;;;7390548;19;20829;-90
2022/09/18 03:20:57;;;;;;;0.30;0.30;;;;;;;;;;7387544;19;20610;-91
2022/09/18 03:23:22;;;;;;;0.30;0.30;;;;;;;;;;7391975;19;20133;-91
2022/09/18 03:25:51;;;;;;;0.30;0.30;;;;;;;;;;7390359;19;20593;-90
2022/09/18 03:28:56;;;;;;;;;;;;;;;;;;;;;
2022/09/18 03:31:21;;;;;;;0.43;0.43;;;;;;;;;;7389973;19;20624;-90
2022/09/18 03:37:18;;;;;;;0.30;0.30;;;;;;;;;;7387138;19;20219;-90
2022/09/18 03:39:44;;;;;;;0.30;0.30;;;;;;;;;;7388094;19;20133;-90
2022/09/18 03:42:31;;;;;;;0.30;0.30;;;;;;;;;;7388438;19;20160;-88
2022/09/18 03:45:21;;;;;;;0.37;0.37;;;;;;;;;;7390180;19;20543;-90
2022/09/18 03:48:14;;;;;;;0.30;0.30;;;;;;;;;;7389700;19;20129;-90
2022/09/18 03:51:02;;;;;;;;;;;;;;;;;;;;;
2022/09/18 03:53:27;;;;;;;0.30;0.30;;;;;;;;;;7387783;19;20581;-89
2022/09/18 03:55:58;;;;;;;0.90;0.90;;;;;;;;;;7387670;19;20147;-90
2022/09/18 03:58:30;;;;;;;0.30;0.30;;;;;;;;;;7388841;19;20244;-89
2022/09/18 04:00:56;;;;;;;0.30;0.30;;;;;;;;;;7387638;19;20687;-91
2022/09/18 04:03:29;;;;;;;0.40;0.40;;;;;;;;;;7388319;19;20106;-89
2022/09/18 04:06:06;;;;;;;0.30;0.30;;;;;;;;;;7387331;19;20632;-91
2022/09/18 04:08:49;;;;;;;0.30;0.30;;;;;;;;;;7383971;19;20140;-89
2022/09/18 04:11:15;;;;;;;2.00;0.80;;;;;;;;;;7386184;19;20161;-92
2022/09/18 04:13:40;;;;;;;0.30;0.30;;;;;;;;;;7389831;19;20117;-90
2022/09/18 04:16:06;;;;;;;0.40;0.40;;;;;;;;;;7388854;19;20121;-92
2022/09/18 04:18:31;;;;;;;0.40;0.40;;;;;;;;;;7389671;19;20120;-89
2022/09/18 04:20:57;;;;;;;0.47;0.47;;;;;;;;;;7388490;19;20157;-92
2022/09/18 04:23:22;;;;;;;0.20;0.20;;;;;;;;;;7385971;19;20117;-91
2022/09/18 04:25:47;;;;;;;0.30;0.30;;;;;;;;;;7387564;19;20121;-89
2022/09/18 04:28:13;;;;;;;0.30;0.30;;;;;;;;;;7388421;19;20189;-90
2022/09/18 04:30:38;;;;;;;0.30;0.30;;;;;;;;;;7388574;19;20180;-90
2022/09/18 04:33:04;;;;;;;0.37;0.37;;;;;;;;;;7387311;19;20121;-92
2022/09/18 04:35:30;;;;;;;0.40;0.40;;;;;;;;;;7387426;19;20152;-89
2022/09/18 04:37:55;;;;;;;0.23;0.23;;;;;;;;;;7388128;19;20575;-90
2022/09/18 04:40:21;;;;;;;0.20;0.20;;;;;;;;;;7388441;19;20228;-90
2022/09/18 04:42:46;;;;;;;0.30;0.30;;;;;;;;;;7385836;19;20124;-89
2022/09/18 04:45:11;;;;;;;0.37;0.37;;;;;;;;;;7391571;19;20113;-90
2022/09/18 04:47:37;;;;;;;0.23;0.23;;;;;;;;;;7390375;19;20120;-91
2022/09/18 04:50:04;;;;;;;0.30;0.30;;;;;;;;;;7390685;19;20464;-91
2022/09/18 04:52:29;;;;;;;0.30;0.30;;;;;;;;;;7391937;19;20486;-90
2022/09/18 07:32:27;;;;;;;0.30;0.30;;;;;;;;;;7384501;19;20200;-73
2022/09/18 07:34:52;;;;;;;0.30;0.30;;;;;;;;;;7381198;19;20438;-72
2022/09/18 07:37:18;;;;;;;0.23;0.23;;;;;;;;;;7384602;19;20124;-73
2022/09/18 07:39:43;;;;;;;0.30;0.30;;;;;;;;;;7383778;19;20458;-72
2022/09/18 07:42:10;;;;;;;0.30;0.30;;;;;;;;;;7381623;19;20599;-72
2022/09/18 07:44:35;;;;;;;0.20;0.20;;;;;;;;;;7385162;19;20125;-73
2022/09/18 07:47:01;;;;;;;0.30;0.30;;;;;;;;;;7381849;19;20121;-72
2022/09/18 07:49:26;;;;;;;0.30;0.30;;;;;;;;;;7382215;19;20116;-72
2022/09/18 07:51:52;;;;;;;0.40;0.40;;;;;;;;;;7381924;19;20124;-73
2022/09/18 07:54:17;;;;;;;1.03;0.50;;;;;;;;;;7382701;19;20129;-72
2022/09/18 07:56:42;;;;;;;0.30;0.30;;;;;;;;;;7381726;19;20121;-72
2022/09/18 07:59:09;;;;;;;0.30;0.30;;;;;;;;;;7383524;19;20519;-72
2022/09/18 08:01:34;;;;;;;0.37;0.37;;;;;;;;;;7383167;19;20105;-72
2022/09/18 08:04:00;;;;;;;0.30;0.30;;;;;;;;;;7385314;19;20459;-72
2022/09/18 08:06:25;;;;;;;0.30;0.30;;;;;;;;;;7382544;19;20649;-72
2022/09/18 08:08:51;;;;;;;0.30;0.30;;;;;;;;;;7382466;19;20165;-72
2022/09/18 08:11:16;;;;;;;0.20;0.20;;;;;;;;;;7381852;19;20109;-72
2022/09/18 08:13:41;;;;;;;0.30;0.30;;;;;;;;;;7381171;19;20500;-72
2022/09/18 08:16:08;;;;;;;0.30;0.30;;;;;;;;;;7380339;19;20205;-72
2022/09/18 08:18:35;;;;;;;0.70;0.70;;;;;;;;;;7376008;19;20124;-72
2022/09/18 08:21:00;;;;;;;0.30;0.30;;;;;;;;;;7376294;19;20618;-72
2022/09/18 08:23:25;;;;;;;0.30;0.30;;;;;;;;;;7378705;19;20121;-72
2022/09/18 08:25:51;;;;;;;0.30;0.30;;;;;;;;;;7382206;19;20125;-72
2022/09/18 08:28:16;;;;;;;0.20;0.20;;;;;;;;;;7379105;19;20139;-72
2022/09/18 08:30:42;;;;;;;0.40;0.40;;;;;;;;;;7383009;19;20132;-73
2022/09/18 08:33:08;;;;;;;0.20;0.20;;;;;;;;;;7376013;19;20133;-73
2022/09/18 08:35:33;;;;;;;0.30;0.30;;;;;;;;;;7382894;19;20101;-72
2022/09/18 08:37:59;;;;;;;0.30;0.30;;;;;;;;;;7382468;19;20101;-72
2022/09/18 08:40:46;;;;;;;0.30;0.30;;;;;;;;;;7381412;19;20113;-72
2022/09/18 08:43:11;;;;;;;0.30;0.30;;;;;;;;;;7381020;19;20129;-72
2022/09/18 08:45:57;;;;;;;0.33;0.33;;;;;;;;;;7382555;19;20152;-72
2022/09/18 08:48:28;;;;;;;0.30;0.30;;;;;;;;;;7381806;19;20132;-72
2022/09/18 08:51:52;;;;;;;0.30;0.30;;;;;;;;;;7379408;19;20117;-72
2022/09/18 08:54:34;;;;;;;0.30;0.30;;;;;;;;;;7377444;19;20149;-72
2022/09/18 08:57:04;;;;;;;0.30;0.30;;;;;;;;;;7379921;19;20114;-73
2022/09/18 08:59:38;;;;;;;0.30;0.30;;;;;;;;;;7381143;19;20113;-72
2022/09/18 09:02:22;;;;;;;0.30;0.30;;;;;;;;;;7382379;19;20109;-72
2022/09/18 09:04:48;;;;;;;0.30;0.30;;;;;;;;;;7378223;19;20161;-72
2022/09/18 09:07:31;;;;;;;0.30;0.30;;;;;;;;;;7379239;19;20531;-72
2022/09/18 09:10:30;;;;;;;0.30;0.30;;;;;;;;;;7381062;19;20121;-72
2022/09/18 09:13:03;;;;;;;0.33;0.33;;;;;;;;;;7381152;19;20494;-72
2022/09/18 09:15:46;;;;;;;0.30;0.30;;;;;;;;;;7380031;19;20137;-73
2022/09/18 09:18:53;;;;;;;0.30;0.30;;;;;;;;;;7374000;19;20607;-73
2022/09/18 09:21:23;;;;;;;0.30;0.30;;;;;;;;;;7380914;19;20128;-72
2022/09/18 09:24:35;;;;;;;0.30;0.30;;;;;;;;;;7378714;19;20149;-73
2022/09/18 09:27:09;;;;;;;0.30;0.30;;;;;;;;;;7379194;19;20136;-73
2022/09/18 09:29:36;;;;;;;0.30;0.30;;;;;;;;;;7379396;19;20598;-72
2022/09/18 09:32:11;;;;;;;0.30;0.30;;;;;;;;;;7380966;19;20117;-73
2022/09/18 09:34:43;;;;;;;0.30;0.30;;;;;;;;;;7379864;19;20152;-72
2022/09/18 09:37:14;;;;;;;0.30;0.30;;;;;;;;;;7381659;19;20125;-73
2022/09/18 09:39:45;;;;;;;0.30;0.30;;;;;;;;;;7381368;19;20667;-73
2022/09/18 09:42:28;;;;;;;0.30;0.30;;;;;;;;;;7381062;19;20121;-73
2022/09/18 09:45:03;;;;;;;0.30;0.30;;;;;;;;;;7377858;19;20153;-72
2022/09/18 09:47:51;;;;;;;0.30;0.30;;;;;;;;;;7380677;19;20534;-72
2022/09/18 09:50:53;;;;;;;0.30;0.30;;;;;;;;;;7378556;19;20474;-73
2022/09/18 09:53:21;;;;;;;0.30;0.30;;;;;;;;;;7380807;19;20117;-72
2022/09/18 09:56:01;;;;;;;0.30;0.30;;;;;;;;;;7382184;19;20113;-72
2022/09/18 09:58:53;;;;;;;0.20;0.20;;;;;;;;;;7387042;19;20128;-73
2022/09/18 10:01:24;;;;;;;0.30;0.30;;;;;;;;;;7387647;19;20202;-73
2022/09/18 10:04:04;;;;;;;0.30;0.30;;;;;;;;;;7388228;19;20156;-73
2022/09/18 10:06:41;;;;;;;0.30;0.30;;;;;;;;;;7388645;19;20132;-73
2022/09/18 10:09:21;;;;;;;0.30;0.30;;;;;;;;;;7390497;19;20132;-72
2022/09/18 10:11:54;;;;;;;0.30;0.30;;;;;;;;;;7387029;19;20120;-72
2022/09/18 10:14:24;;;;;;;0.30;0.30;;;;;;;;;;7384601;19;20493;-72
2022/09/18 10:16:51;;;;;;;0.50;0.50;;;;;;;;;;7382911;19;20153;-72
2022/09/18 10:19:19;;;;;;;0.30;0.30;;;;;;;;;;7386236;19;20129;-72
2022/09/18 10:21:45;;;;;;;0.32;0.32;;;;;;;;;;7387068;19;20128;-73
2022/09/18 10:24:18;;;;;;;0.30;0.30;;;;;;;;;;7386443;19;20239;-73
2022/09/18 10:26:46;;;;;;;0.30;0.30;;;;;;;;;;7387657;19;20116;-73
2022/09/18 10:29:12;;;;;;;0.30;0.30;;;;;;;;;;7387673;19;20129;-73
2022/09/18 10:31:48;;;;;;;0.30;0.30;;;;;;;;;;7386361;19;20136;-73
2022/09/18 10:34:45;;;;;;;0.30;0.30;;;;;;;;;;7387338;19;20154;-73
2022/09/18 10:37:16;;;;;;;0.40;0.40;;;;;;;;;;7386782;19;20109;-73
2022/09/18 10:39:50;;;;;;;0.30;0.30;;;;;;;;;;7385950;19;20138;-73
2022/09/18 10:42:18;;;;;;;0.30;0.30;;;;;;;;;;7386808;19;20728;-72
2022/09/18 10:44:49;;;;;;;0.30;0.30;;;;;;;;;;7388310;19;20131;-73
2022/09/18 10:47:26;;;;;;;0.30;0.30;;;;;;;;;;7388999;19;20125;-73
2022/09/18 10:50:10;;;;;;;0.30;0.30;;;;;;;;;;7383920;19;20590;-72
2022/09/18 10:52:36;;;;;;;0.30;0.30;;;;;;;;;;7388684;19;20109;-73
2022/09/18 10:55:11;;;;;;;0.30;0.30;;;;;;;;;;7385511;19;20132;-73
2022/09/18 10:57:48;;;;;;;0.30;0.30;;;;;;;;;;7387621;19;20178;-72
2022/09/18 11:00:20;;;;;;;0.30;0.30;;;;;;;;;;7384538;19;20153;-73
2022/09/18 11:02:48;;;;;;;0.30;0.30;;;;;;;;;;7388140;19;20587;-72
2022/09/18 11:05:36;;;;;;;0.30;0.30;;;;;;;;;;7386592;19;20121;-72
2022/09/18 11:08:05;;;;;;;0.30;0.30;;;;;;;;;;7382217;19;20123;-72
2022/09/18 11:10:36;;;;;;;0.40;0.40;;;;;;;;;;7384675;19;20113;-73
2022/09/18 11:13:02;;;;;;;0.30;0.30;;;;;;;;;;7386352;19;20110;-72
2022/09/18 11:15:29;;;;;;;0.30;0.30;;;;;;;;;;7383239;19;20444;-72
2022/09/18 11:17:57;;;;;;;0.47;0.47;;;;;;;;;;7383829;19;20121;-72
2022/09/18 11:20:38;;;;;;;0.30;0.30;;;;;;;;;;7382738;19;20109;-73
2022/09/18 11:23:36;;;;;;;0.30;0.30;;;;;;;;;;7384764;19;20838;-72
2022/09/18 11:26:28;;;;;;;0.30;0.30;;;;;;;;;;7381138;19;20125;-72
2022/09/18 11:28:58;;;;;;;0.30;0.30;;;;;;;;;;7385770;19;20133;-73
2022/09/18 11:31:23;;;;;;;0.20;0.20;;;;;;;;;;7380502;19;20208;-73
2022/09/18 11:33:54;;;;;;;0.30;0.30;;;;;;;;;;7384371;19;20507;-73
2022/09/18 11:36:25;;;;;;;0.30;0.30;;;;;;;;;;7383525;19;20229;-73
2022/09/18 11:38:50;;;;;;;0.30;0.30;;;;;;;;;;7384002;19;20116;-73
2022/09/18 11:41:27;;;;;;;0.30;0.30;;;;;;;;;;7382503;19;20109;-73
2022/09/18 11:44:02;;;;;;;0.45;0.45;;;;;;;;;;7383504;19;20124;-73
2022/09/18 11:50:19;;;;;;;0.30;0.30;;;;;;;;;;7381204;19;20109;-73
2022/09/18 11:52:50;;;;;;;0.30;0.30;;;;;;;;;;7384453;19;20113;-72
2022/09/18 11:55:21;;;;;;;0.40;0.40;;;;;;;;;;7378136;19;20143;-73
2022/09/18 11:57:50;;;;;;;0.30;0.30;;;;;;;;;;7375555;19;20633;-73
2022/09/18 12:00:19;;;;;;;2.55;0.60;;;;;;;;;;7376516;19;20113;-73
2022/09/18 12:03:10;;;;;;;0.30;0.30;;;;;;;;;;7376781;19;20188;-72
2022/09/18 12:05:38;;;;;;;0.40;0.40;;;;;;;;;;7378431;19;20117;-72
2022/09/18 12:08:26;;;;;;;0.75;0.75;;;;;;;;;;7381036;19;20450;-73
2022/09/18 12:11:01;;;;;;;0.30;0.30;;;;;;;;;;7381476;19;20132;-72
2022/09/18 12:13:39;;;;;;;0.35;0.35;;;;;;;;;;7384019;19;20231;-73
2022/09/18 12:16:15;;;;;;;0.30;0.30;;;;;;;;;;7382089;19;20117;-73
2022/09/18 12:18:54;;;;;;;0.35;0.35;;;;;;;;;;7381373;19;20113;-73
2022/09/18 12:21:31;;;;;;;0.40;0.40;;;;;;;;;;7382504;19;20579;-72
2022/09/18 12:23:56;;;;;;;0.40;0.40;;;;;;;;;;7382005;19;20128;-73
2022/09/18 12:26:24;;;;;;;0.40;0.40;;;;;;;;;;7383108;19;20128;-73
2022/09/18 12:29:28;;;;;;;0.40;0.40;;;;;;;;;;7385366;19;20105;-73
2022/09/18 12:32:22;;;;;;;0.40;0.40;;;;;;;;;;7378862;19;20144;-74
2022/09/18 12:35:00;;;;;;;0.30;0.30;;;;;;;;;;7382294;19;20190;-73
2022/09/18 12:37:30;;;;;;;0.30;0.30;;;;;;;;;;7383114;19;20576;-73
2022/09/18 12:40:33;;;;;;;0.30;0.30;;;;;;;;;;7383661;19;20120;-73
2022/09/18 12:43:35;;;;;;;0.30;0.30;;;;;;;;;;7385109;19;20105;-73
2022/09/18 12:46:09;;;;;;;0.30;0.30;;;;;;;;;;7386918;19;20108;-73
2022/09/18 12:48:44;;;;;;;0.30;0.30;;;;;;;;;;7382527;19;20124;-72
2022/09/18 12:51:12;;;;;;;0.30;0.30;;;;;;;;;;7380631;19;20124;-72
2022/09/18 12:53:46;;;;;;;0.60;0.60;;;;;;;;;;7385258;19;20526;-72
2022/09/18 12:56:49;;;;;;;0.38;0.38;;;;;;;;;;7381789;19;20169;-73
2022/09/18 12:59:40;;;;;;;0.40;0.40;;;;;;;;;;7384532;19;20189;-73
2022/09/18 13:02:11;;;;;;;0.30;0.30;;;;;;;;;;7383584;19;20125;-73
2022/09/18 13:04:43;;;;;;;1.85;0.68;;;;;;;;;;7381099;19;20164;-73
2022/09/18 13:07:16;;;;;;;0.30;0.30;;;;;;;;;;7383771;19;20101;-73
2022/09/18 13:09:48;;;;;;;1.63;0.52;;;;;;;;;;7382096;19;20192;-73
2022/09/18 13:12:38;;;;;;;0.30;0.30;;;;;;;;;;7384926;19;20598;-73
2022/09/18 13:15:42;;;;;;;0.30;0.30;;;;;;;;;;7381843;19;20153;-72
2022/09/18 13:18:37;;;;;;;0.30;0.30;;;;;;;;;;7384531;19;20113;-73
2022/09/18 13:21:06;;;;;;;0.40;0.40;;;;;;;;;;7381038;19;20599;-72
2022/09/18 13:23:35;;;;;;;1.65;1.48;;;;;;;;;;7380961;19;20142;-73
2022/09/18 13:26:03;;;;;;;0.30;0.30;;;;;;;;;;7382361;19;20578;-73
2022/09/18 13:28:28;;;;;;;0.30;0.30;;;;;;;;;;7382812;19;20114;-73
2022/09/18 13:31:15;;;;;;;0.38;0.38;;;;;;;;;;7387441;19;20097;-73
2022/09/18 13:33:54;;;;;;;0.30;0.30;;;;;;;;;;7391425;19;20125;-73
2022/09/18 13:36:25;;;;;;;0.30;0.30;;;;;;;;;;7386963;19;20112;-73
2022/09/18 13:38:50;;;;;;;0.35;0.35;;;;;;;;;;7389553;19;20124;-73
2022/09/18 13:41:16;;;;;;;0.40;0.40;;;;;;;;;;7387406;19;20117;-73
2022/09/18 13:43:44;;;;;;;0.30;0.30;;;;;;;;;;7389152;19;20123;-73
2022/09/18 13:46:32;;;;;;;0.30;0.30;;;;;;;;;;7389055;19;20576;-73
2022/09/18 13:49:00;;;;;;;0.30;0.30;;;;;;;;;;7391151;19;20109;-73
2022/09/18 13:51:28;;;;;;;0.40;0.40;;;;;;;;;;7384767;19;20109;-73
2022/09/18 13:54:12;;;;;;;0.30;0.30;;;;;;;;;;7385652;19;20129;-73
2022/09/18 13:57:03;;;;;;;0.30;0.30;;;;;;;;;;7388289;19;20480;-73
2022/09/18 14:00:14;;;;;;;0.30;0.30;;;;;;;;;;7390379;19;20117;-73
2022/09/18 14:02:39;;;;;;;0.30;0.30;;;;;;;;;;7388157;19;20125;-73
2022/09/18 14:05:28;;;;;;;0.30;0.30;;;;;;;;;;7384301;19;20252;-73
2022/09/18 14:08:06;;;;;;;0.40;0.40;;;;;;;;;;7384091;19;20121;-73
2022/09/18 14:10:40;;;;;;;0.30;0.30;;;;;;;;;;7389571;19;20108;-73
2022/09/18 14:13:18;;;;;;;0.40;0.40;;;;;;;;;;7385289;19;20105;-73
2022/09/18 14:16:07;;;;;;;0.30;0.30;;;;;;;;;;7380512;19;20125;-73
2022/09/18 14:18:52;;;;;;;0.40;0.40;;;;;;;;;;7382537;19;20117;-73
2022/09/18 14:21:18;;;;;;;0.40;0.40;;;;;;;;;;7378706;19;20097;-73
2022/09/18 14:23:43;;;;;;;0.52;0.52;;;;;;;;;;7381319;19;20367;-73
2022/09/18 14:26:27;;;;;;;0.30;0.30;;;;;;;;;;7380305;19;20117;-73
2022/09/18 14:28:53;;;;;;;0.30;0.30;;;;;;;;;;7385595;19;20575;-73
2022/09/18 14:31:27;;;;;;;0.30;0.30;;;;;;;;;;7386067;19;20182;-73
2022/09/18 14:33:53;;;;;;;0.47;0.47;;;;;;;;;;7387956;19;20137;-73
2022/09/18 14:36:18;;;;;;;0.30;0.30;;;;;;;;;;7386589;19;20461;-73
2022/09/18 14:38:44;;;;;;;0.40;0.40;;;;;;;;;;7385975;19;20133;-73
2022/09/18 14:41:30;;;;;;;0.30;0.30;;;;;;;;;;7384583;19;20128;-72
2022/09/18 14:44:00;;;;;;;0.30;0.30;;;;;;;;;;7386511;19;20533;-72
2022/09/18 14:46:26;;;;;;;0.30;0.30;;;;;;;;;;7387447;19;20113;-73
2022/09/18 14:48:52;;;;;;;0.30;0.30;;;;;;;;;;7386326;19;20541;-73
2022/09/18 14:51:21;;;;;;;0.30;0.30;;;;;;;;;;7384672;19;20595;-73
2022/09/18 14:53:51;;;;;;;0.30;0.30;;;;;;;;;;7385615;19;20128;-72
2022/09/18 14:56:28;;;;;;;0.30;0.30;;;;;;;;;;7385943;19;20105;-73
2022/09/18 14:58:54;;;;;;;0.30;0.30;;;;;;;;;;7386508;19;20121;-73
2022/09/18 15:01:29;;;;;;;0.30;0.30;;;;;;;;;;7386286;19;20436;-73
2022/09/18 15:03:55;;;;;;;0.32;0.32;;;;;;;;;;7385866;19;20708;-73
2022/09/18 15:06:52;;;;;;;0.30;0.30;;;;;;;;;;7386925;19;20110;-73
2022/09/18 15:09:31;;;;;;;0.30;0.30;;;;;;;;;;7386247;19;20188;-73
2022/09/18 15:11:57;;;;;;;0.30;0.30;;;;;;;;;;7386461;19;20569;-72
2022/09/18 15:14:28;;;;;;;0.30;0.30;;;;;;;;;;7384056;19;20156;-72
2022/09/18 15:16:59;;;;;;;0.30;0.30;;;;;;;;;;7383951;19;20105;-72
2022/09/18 15:19:26;;;;;;;0.30;0.30;;;;;;;;;;7385510;19;20109;-73
2022/09/18 15:21:52;;;;;;;0.30;0.30;;;;;;;;;;7384611;19;20117;-72
2022/09/18 15:24:18;;;;;;;0.30;0.30;;;;;;;;;;7383837;19;20121;-72
2022/09/18 15:26:51;;;;;;;0.30;0.30;;;;;;;;;;7386584;19;20113;-72
2022/09/18 15:29:26;;;;;;;0.30;0.30;;;;;;;;;;7385144;19;20117;-72
2022/09/18 15:31:53;;;;;;;0.30;0.30;;;;;;;;;;7386601;19;20115;-72
2022/09/18 15:34:22;;;;;;;0.30;0.30;;;;;;;;;;7384355;19;20156;-72
2022/09/18 15:36:57;;;;;;;0.30;0.30;;;;;;;;;;7383886;19;20102;-73
2022/09/18 15:39:37;;;;;;;0.30;0.30;;;;;;;;;;7384796;19;20125;-73
2022/09/18 15:42:28;;;;;;;0.30;0.30;;;;;;;;;;7385668;19;20127;-72
2022/09/18 15:45:00;;;;;;;0.30;0.30;;;;;;;;;;7381950;19;20523;-72
2022/09/18 15:47:28;;;;;;;0.68;0.68;;;;;;;;;;7385402;19;20146;-72
2022/09/18 15:49:54;;;;;;;0.30;0.30;;;;;;;;;;7385027;19;20105;-72
2022/09/18 15:52:42;;;;;;;0.30;0.30;;;;;;;;;;7385269;19;20176;-72
2022/09/18 15:55:22;;;;;;;0.30;0.30;;;;;;;;;;7383916;19;20437;-72
2022/09/18 15:57:59;;;;;;;0.30;0.30;;;;;;;;;;7385005;19;20098;-72
2022/09/18 16:00:32;;;;;;;0.30;0.30;;;;;;;;;;7383855;19;20133;-72
2022/09/18 16:03:00;;;;;;;1.00;0.90;;;;;;;;;;7385038;19;20158;-72
2022/09/18 16:05:27;;;;;;;0.30;0.30;;;;;;;;;;7384367;19;20104;-72
2022/09/18 16:08:04;;;;;;;0.30;0.30;;;;;;;;;;7383216;19;20185;-76
2022/09/18 16:10:32;;;;;;;0.30;0.30;;;;;;;;;;7381887;19;20156;-72
2022/09/18 16:12:58;;;;;;;0.30;0.30;;;;;;;;;;7384513;19;20112;-73
2022/09/18 16:15:24;;;;;;;0.30;0.30;;;;;;;;;;7379358;19;20101;-73
2022/09/18 16:17:49;;;;;;;0.30;0.30;;;;;;;;;;7379665;19;20128;-72
2022/09/18 16:20:38;;;;;;;0.30;0.30;;;;;;;;;;7377990;19;20134;-73
2022/09/18 16:23:34;;;;;;;0.30;0.30;;;;;;;;;;7384025;19;20121;-72
2022/09/18 16:26:12;;;;;;;0.30;0.30;;;;;;;;;;7380677;19;20500;-73
2022/09/18 16:29:01;;;;;;;0.30;0.30;;;;;;;;;;7381403;19;20121;-73
2022/09/18 16:31:30;;;;;;;0.30;0.30;;;;;;;;;;7380735;19;20109;-72
2022/09/18 16:34:00;;;;;;;0.30;0.30;;;;;;;;;;7381326;19;20121;-73
2022/09/18 16:36:37;;;;;;;0.70;0.70;;;;;;;;;;7382423;19;20122;-73
2022/09/18 16:39:10;;;;;;;0.30;0.30;;;;;;;;;;7382269;19;20117;-73
2022/09/18 16:41:35;;;;;;;0.35;0.35;;;;;;;;;;7382319;19;20448;-73
2022/09/18 16:44:02;;;;;;;0.22;0.22;;;;;;;;;;7375570;19;20125;-73
2022/09/18 16:46:32;;;;;;;0.30;0.30;;;;;;;;;;7375145;19;20144;-73
2022/09/18 16:48:57;;;;;;;0.30;0.30;;;;;;;;;;7371861;19;20204;-73
2022/09/18 16:51:23;;;;;;;0.30;0.30;;;;;;;;;;7382069;19;20562;-73
2022/09/18 16:53:48;;;;;;;0.30;0.30;;;;;;;;;;7383805;19;20176;-73
2022/09/18 16:56:16;;;;;;;0.30;0.30;;;;;;;;;;7381957;19;20844;-73
2022/09/18 16:58:41;;;;;;;0.30;0.30;;;;;;;;;;7383163;19;20478;-73
2022/09/18 17:01:07;;;;;;;0.30;0.30;;;;;;;;;;7375621;19;20140;-72
2022/09/18 17:03:32;;;;;;;0.30;0.30;;;;;;;;;;7379492;19;20180;-73
2022/09/18 17:10:16;;;;;;;0.30;0.30;;;;;;;;;;7383776;19;20540;-72
2022/09/18 17:12:41;;;;;;;0.30;0.30;;;;;;;;;;7384949;19;20493;-73
2022/09/18 17:15:07;;;;;;;0.40;0.40;;;;;;;;;;7381117;19;20125;-73
2022/09/18 17:17:33;;;;;;;3.30;1.48;;;;;;;;;;7380647;19;20129;-73
2022/09/18 17:19:58;;;;;;;0.30;0.30;;;;;;;;;;7376643;19;20668;-73
2022/09/18 17:22:24;;;;;;;0.30;0.30;;;;;;;;;;7380840;19;20193;-73
2022/09/18 17:24:50;;;;;;;0.30;0.30;;;;;;;;;;7373031;19;20638;-73
2022/09/18 17:27:16;;;;;;;0.30;0.30;;;;;;;;;;7379569;19;20109;-72
2022/09/18 17:29:42;;;;;;;0.30;0.30;;;;;;;;;;7378996;19;20109;-73
2022/09/18 17:32:07;;;;;;;0.30;0.30;;;;;;;;;;7380089;19;20136;-73
2022/09/18 17:34:33;;;;;;;0.30;0.30;;;;;;;;;;7380448;19;20165;-73
2022/09/18 17:36:59;;;;;;;0.30;0.30;;;;;;;;;;7380000;19;20571;-73
2022/09/18 17:39:24;;;;;;;0.30;0.30;;;;;;;;;;7382449;19;20330;-73
2022/09/18 17:41:49;;;;;;;0.30;0.30;;;;;;;;;;7379932;19;20109;-73
2022/09/18 17:44:15;;;;;;;0.30;0.30;;;;;;;;;;7380078;19;20121;-73
2022/09/18 17:46:40;;;;;;;0.30;0.30;;;;;;;;;;7383108;19;20117;-73
2022/09/18 17:49:05;;;;;;;0.30;0.30;;;;;;;;;;7385754;19;20130;-73
2022/09/18 17:51:31;;;;;;;0.47;0.47;;;;;;;;;;7378853;19;20188;-73
2022/09/18 17:53:58;;;;;;;0.30;0.30;;;;;;;;;;7379922;19;20117;-73
2022/09/18 17:56:28;;;;;;;0.30;0.30;;;;;;;;;;7379360;19;20109;-73
2022/09/18 17:58:56;;;;;;;0.30;0.30;;;;;;;;;;7380556;19;20153;-73
2022/09/18 18:01:22;;;;;;;0.30;0.30;;;;;;;;;;7378405;19;20124;-73
2022/09/18 18:03:47;;;;;;;0.30;0.30;;;;;;;;;;7381629;19;20117;-73
2022/09/18 18:06:13;;;;;;;0.30;0.30;;;;;;;;;;7379570;19;20114;-73
2022/09/18 18:08:38;;;;;;;0.30;0.30;;;;;;;;;;7381464;19;20124;-73
2022/09/18 18:11:09;;;;;;;0.30;0.30;;;;;;;;;;7379287;19;20105;-73
2022/09/18 18:13:36;;;;;;;0.30;0.30;;;;;;;;;;7381502;19;20216;-73
2022/09/18 18:16:12;;;;;;;0.30;0.30;;;;;;;;;;7381099;19;20121;-73
2022/09/18 18:18:38;;;;;;;0.30;0.30;;;;;;;;;;7389757;19;20468;-73
2022/09/18 18:21:05;;;;;;;0.30;0.30;;;;;;;;;;7387367;19;20196;-73
2022/09/18 18:23:31;;;;;;;0.30;0.30;;;;;;;;;;7384921;19;20174;-73